createdAt,value
2022-12-06T00:00:42.895Z,16.50
2022-12-06T00:01:42.957Z,16.20
2022-12-06T00:02:42.896Z,14.70
2022-12-06T00:03:42.945Z,15.40
2022-12-06T00:04:42.895Z,17.10
2022-12-06T00:05:46.261Z,17.60
2022-12-06T00:06:42.863Z,14.90
2022-12-06T00:07:42.923Z,14.80
2022-12-06T00:08:42.853Z,17.20
2022-12-06T00:09:42.870Z,14.90
2022-12-06T00:10:42.841Z,16.40
2022-12-06T00:11:42.837Z,15.30
2022-12-06T00:12:42.835Z,14.20
2022-12-06T00:13:42.825Z,14.90
2022-12-06T00:14:42.838Z,14.30
2022-12-06T00:15:42.801Z,13.50
2022-12-06T00:16:42.842Z,15.20
2022-12-06T00:17:43.227Z,17.10
2022-12-06T00:18:42.791Z,15.20
2022-12-06T00:19:42.788Z,14.50
2022-12-06T00:20:42.789Z,14.10
2022-12-06T00:21:42.777Z,15.80
2022-12-06T00:22:42.757Z,14.90
2022-12-06T00:23:42.752Z,15.20
2022-12-06T00:24:42.769Z,16.50
2022-12-06T00:25:42.752Z,21.30
2022-12-06T00:26:42.735Z,28.10
2022-12-06T00:27:42.729Z,21.10
2022-12-06T00:28:42.713Z,17.60
2022-12-06T00:29:42.737Z,14.60
2022-12-06T00:30:42.703Z,15.10
2022-12-06T00:31:42.766Z,13.30
2022-12-06T00:32:42.692Z,13.50
2022-12-06T00:33:42.705Z,13.30
2022-12-06T00:34:42.675Z,13.50
2022-12-06T00:35:42.707Z,16.00
2022-12-06T00:36:42.668Z,13.90
2022-12-06T00:37:42.663Z,13.60
2022-12-06T00:38:42.707Z,11.40
2022-12-06T00:39:42.653Z,11.20
2022-12-06T00:40:42.651Z,13.60
2022-12-06T00:41:42.653Z,13.50
2022-12-06T00:42:42.639Z,13.20
2022-12-06T00:43:42.622Z,11.90
2022-12-06T00:44:42.629Z,9.60
2022-12-06T00:45:42.625Z,10.10
2022-12-06T00:46:42.607Z,9.60
2022-12-06T00:47:42.618Z,11.40
2022-12-06T00:48:42.588Z,9.50
2022-12-06T00:49:42.587Z,10.10
2022-12-06T00:50:42.587Z,10.10
2022-12-06T00:51:42.575Z,9.80
2022-12-06T00:52:42.620Z,10.70
2022-12-06T00:53:42.565Z,10.40
2022-12-06T00:54:42.558Z,10.30
2022-12-06T00:55:42.544Z,9.80
2022-12-06T00:56:42.549Z,10.20
2022-12-06T00:57:42.535Z,9.90
2022-12-06T00:58:42.534Z,9.30
2022-12-06T00:59:42.527Z,9.70
2022-12-06T01:00:42.514Z,11.10
2022-12-06T01:01:42.566Z,10.10
2022-12-06T01:02:42.525Z,8.80
2022-12-06T01:03:42.543Z,9.40
2022-12-06T01:04:42.504Z,9.10
2022-12-06T01:05:42.481Z,8.80
2022-12-06T01:06:42.491Z,9.30
2022-12-06T01:07:42.517Z,9.40
2022-12-06T01:08:42.460Z,10.50
2022-12-06T01:09:42.476Z,9.30
2022-12-06T01:10:42.442Z,8.70
2022-12-06T01:11:42.438Z,9.10
2022-12-06T01:12:42.423Z,9.40
2022-12-06T01:13:42.434Z,11.60
2022-12-06T01:14:42.424Z,8.70
2022-12-06T01:15:42.465Z,9.70
2022-12-06T01:16:42.498Z,9.00
2022-12-06T01:17:42.395Z,9.70
2022-12-06T01:18:42.388Z,9.60
2022-12-06T01:19:42.383Z,9.50
2022-12-06T01:20:42.380Z,9.80
2022-12-06T01:21:42.412Z,9.10
2022-12-06T01:22:42.373Z,9.30
2022-12-06T01:23:42.373Z,8.70
2022-12-06T01:24:42.357Z,9.10
2022-12-06T01:25:42.355Z,9.50
2022-12-06T01:26:42.344Z,11.10
2022-12-06T01:27:42.360Z,9.50
2022-12-06T01:28:42.349Z,9.70
2022-12-06T01:29:42.330Z,11.50
2022-12-06T01:30:42.398Z,9.30
2022-12-06T01:31:42.314Z,9.20
2022-12-06T01:32:42.314Z,10.30
2022-12-06T01:33:42.335Z,9.60
2022-12-06T01:34:42.290Z,9.80
2022-12-06T01:35:42.297Z,10.60
2022-12-06T01:36:42.292Z,10.20
2022-12-06T01:37:42.294Z,10.60
2022-12-06T01:38:42.266Z,11.00
2022-12-06T01:39:42.270Z,10.60
2022-12-06T01:40:42.259Z,12.90
2022-12-06T01:41:42.263Z,9.10
2022-12-06T01:42:42.240Z,11.30
2022-12-06T01:43:42.232Z,11.20
2022-12-06T01:44:42.234Z,11.40
2022-12-06T01:45:42.270Z,9.40
2022-12-06T01:46:42.255Z,10.00
2022-12-06T01:47:42.221Z,10.30
2022-12-06T01:48:42.195Z,10.00
2022-12-06T01:49:42.206Z,9.90
2022-12-06T01:50:42.196Z,10.10
2022-12-06T01:51:42.194Z,10.40
2022-12-06T01:52:42.165Z,9.80
2022-12-06T01:53:42.164Z,9.60
2022-12-06T01:54:42.160Z,9.70
2022-12-06T01:55:42.170Z,10.40
2022-12-06T01:56:42.146Z,9.10
2022-12-06T01:57:42.148Z,9.50
2022-12-06T01:58:42.130Z,9.70
2022-12-06T01:59:42.127Z,11.80
2022-12-06T02:00:42.129Z,10.30
2022-12-06T02:01:42.218Z,10.30
2022-12-06T02:02:42.189Z,10.10
2022-12-06T02:03:42.107Z,10.30
2022-12-06T02:04:42.112Z,9.70
2022-12-06T02:05:42.083Z,11.00
2022-12-06T02:06:42.082Z,10.40
2022-12-06T02:07:42.141Z,9.40
2022-12-06T02:08:42.058Z,10.70
2022-12-06T02:09:42.065Z,10.20
2022-12-06T02:10:42.076Z,9.30
2022-12-06T02:11:42.044Z,10.10
2022-12-06T02:12:42.062Z,10.40
2022-12-06T02:13:42.040Z,10.20
2022-12-06T02:14:42.059Z,10.10
2022-12-06T02:15:42.022Z,10.10
2022-12-06T02:16:42.069Z,11.20
2022-12-06T02:17:42.019Z,10.70
2022-12-06T02:18:42.023Z,11.10
2022-12-06T02:19:42.003Z,10.90
2022-12-06T02:20:41.987Z,11.20
2022-12-06T02:21:41.984Z,10.40
2022-12-06T02:22:41.974Z,10.20
2022-12-06T02:23:41.986Z,9.10
2022-12-06T02:24:41.958Z,9.90
2022-12-06T02:25:43.529Z,9.70
2022-12-06T02:26:41.951Z,9.60
2022-12-06T02:27:41.939Z,10.20
2022-12-06T02:28:41.936Z,9.90
2022-12-06T02:29:41.949Z,10.60
2022-12-06T02:30:41.991Z,9.30
2022-12-06T02:31:41.911Z,9.90
2022-12-06T02:32:41.925Z,10.60
2022-12-06T02:33:41.911Z,10.20
2022-12-06T02:34:41.907Z,9.40
2022-12-06T02:35:41.892Z,10.70
2022-12-06T02:36:41.894Z,10.20
2022-12-06T02:37:41.874Z,9.80
2022-12-06T02:38:41.890Z,11.80
2022-12-06T02:39:41.867Z,10.00
2022-12-06T02:40:41.872Z,10.60
2022-12-06T02:41:41.854Z,9.20
2022-12-06T02:42:41.838Z,10.10
2022-12-06T02:43:41.838Z,13.30
2022-12-06T02:44:41.824Z,9.40
2022-12-06T02:45:41.846Z,8.90
2022-12-06T02:46:41.872Z,9.90
2022-12-06T02:47:41.816Z,10.50
2022-12-06T02:48:41.824Z,11.10
2022-12-06T02:49:41.798Z,10.60
2022-12-06T02:50:41.785Z,10.30
2022-12-06T02:51:41.789Z,10.40
2022-12-06T02:52:41.782Z,9.80
2022-12-06T02:53:41.778Z,9.60
2022-12-06T02:54:41.801Z,10.80
2022-12-06T02:55:41.767Z,10.80
2022-12-06T02:56:41.776Z,10.30
2022-12-06T02:57:41.751Z,11.20
2022-12-06T02:58:41.759Z,9.60
2022-12-06T02:59:41.739Z,10.20
2022-12-06T03:00:41.729Z,9.90
2022-12-06T03:01:41.780Z,10.00
2022-12-06T03:02:41.870Z,10.20
2022-12-06T03:03:41.728Z,10.60
2022-12-06T03:04:41.709Z,10.10
2022-12-06T03:05:41.700Z,11.00
2022-12-06T03:06:41.734Z,10.20
2022-12-06T03:07:41.730Z,10.10
2022-12-06T03:08:41.677Z,11.00
2022-12-06T03:09:41.687Z,10.40
2022-12-06T03:10:41.668Z,9.50
2022-12-06T03:11:41.665Z,11.00
2022-12-06T03:12:41.652Z,11.50
2022-12-06T03:13:41.649Z,11.00
2022-12-06T03:14:41.655Z,10.90
2022-12-06T03:15:41.681Z,9.70
2022-12-06T03:16:41.617Z,10.40
2022-12-06T03:17:41.622Z,9.10
2022-12-06T03:18:41.608Z,10.50
2022-12-06T03:19:41.607Z,10.60
2022-12-06T03:20:41.611Z,10.60
2022-12-06T03:21:41.603Z,13.00
2022-12-06T03:22:41.584Z,13.20
2022-12-06T03:23:41.587Z,11.90
2022-12-06T03:24:41.576Z,10.50
2022-12-06T03:25:41.593Z,11.20
2022-12-06T03:26:41.558Z,11.90
2022-12-06T03:27:41.562Z,10.00
2022-12-06T03:28:41.547Z,11.60
2022-12-06T03:29:41.544Z,10.50
2022-12-06T03:30:41.568Z,10.80
2022-12-06T03:31:41.542Z,11.40
2022-12-06T03:32:41.523Z,10.70
2022-12-06T03:33:41.517Z,11.00
2022-12-06T03:34:41.511Z,10.60
2022-12-06T03:35:41.506Z,11.60
2022-12-06T03:36:41.512Z,10.60
2022-12-06T03:37:41.492Z,11.70
2022-12-06T03:38:41.483Z,12.60
2022-12-06T03:39:41.482Z,11.40
2022-12-06T03:40:41.487Z,13.00
2022-12-06T03:41:41.466Z,11.50
2022-12-06T03:42:41.452Z,12.30
2022-12-06T03:43:41.453Z,11.80
2022-12-06T03:44:41.438Z,11.70
2022-12-06T03:45:41.484Z,11.70
2022-12-06T03:46:41.482Z,13.00
2022-12-06T03:47:41.429Z,12.40
2022-12-06T03:48:41.420Z,11.10
2022-12-06T03:49:41.415Z,12.60
2022-12-06T03:50:41.407Z,13.50
2022-12-06T03:51:41.397Z,11.10
2022-12-06T03:52:41.410Z,11.50
2022-12-06T03:53:41.409Z,12.80
2022-12-06T03:54:41.383Z,11.90
2022-12-06T03:55:41.379Z,10.80
2022-12-06T03:56:41.369Z,12.40
2022-12-06T03:57:41.358Z,12.20
2022-12-06T03:58:41.353Z,11.60
2022-12-06T03:59:41.361Z,12.20
2022-12-06T04:00:41.357Z,12.50
2022-12-06T04:01:41.389Z,12.00
2022-12-06T04:02:41.328Z,12.30
2022-12-06T04:03:41.365Z,12.80
2022-12-06T04:04:41.324Z,13.40
2022-12-06T04:05:41.343Z,14.00
2022-12-06T04:06:41.301Z,13.50
2022-12-06T04:07:41.325Z,13.20
2022-12-06T04:08:41.289Z,12.20
2022-12-06T04:09:41.285Z,13.50
2022-12-06T04:10:41.275Z,13.20
2022-12-06T04:11:41.287Z,13.70
2022-12-06T04:12:41.260Z,13.20
2022-12-06T04:13:41.266Z,12.70
2022-12-06T04:14:41.246Z,13.30
2022-12-06T04:15:41.311Z,12.40
2022-12-06T04:16:41.249Z,12.60
2022-12-06T04:17:41.236Z,12.50
2022-12-06T04:18:41.233Z,14.00
2022-12-06T04:19:41.234Z,13.30
2022-12-06T04:20:41.207Z,14.60
2022-12-06T04:21:41.203Z,14.40
2022-12-06T04:22:41.198Z,13.40
2022-12-06T04:23:41.196Z,13.20
2022-12-06T04:24:41.183Z,13.20
2022-12-06T04:25:41.203Z,12.80
2022-12-06T04:26:41.173Z,12.70
2022-12-06T04:27:41.167Z,12.40
2022-12-06T04:28:41.152Z,12.90
2022-12-06T04:29:41.150Z,12.40
2022-12-06T04:30:41.153Z,13.00
2022-12-06T04:31:41.224Z,12.40
2022-12-06T04:32:41.137Z,13.30
2022-12-06T04:33:41.130Z,13.50
2022-12-06T04:34:41.137Z,12.60
2022-12-06T04:35:41.128Z,12.50
2022-12-06T04:36:41.108Z,13.10
2022-12-06T04:37:41.102Z,13.20
2022-12-06T04:38:41.093Z,12.20
2022-12-06T04:39:41.113Z,12.00
2022-12-06T04:40:41.093Z,12.10
2022-12-06T04:41:41.112Z,12.70
2022-12-06T04:42:41.059Z,14.30
2022-12-06T04:43:41.058Z,13.00
2022-12-06T04:44:41.068Z,12.20
2022-12-06T04:45:41.061Z,11.50
2022-12-06T04:46:41.115Z,12.10
2022-12-06T04:47:41.054Z,13.10
2022-12-06T04:48:41.031Z,11.40
2022-12-06T04:49:41.028Z,12.20
2022-12-06T04:50:41.038Z,13.30
2022-12-06T04:51:41.017Z,12.60
2022-12-06T04:52:41.003Z,13.50
2022-12-06T04:53:40.995Z,12.50
2022-12-06T04:54:41.002Z,12.70
2022-12-06T04:55:40.988Z,12.90
2022-12-06T04:56:40.987Z,12.50
2022-12-06T04:57:40.970Z,14.60
2022-12-06T04:58:40.961Z,12.60
2022-12-06T04:59:41.002Z,13.20
2022-12-06T05:00:40.987Z,13.00
2022-12-06T05:01:40.948Z,13.20
2022-12-06T05:02:40.934Z,12.30
2022-12-06T05:03:44.155Z,12.30
2022-12-06T05:04:40.927Z,11.50
2022-12-06T05:05:40.941Z,13.00
2022-12-06T05:06:40.914Z,11.70
2022-12-06T05:07:40.954Z,13.20
2022-12-06T05:08:40.901Z,12.10
2022-12-06T05:09:40.896Z,11.50
2022-12-06T05:10:40.889Z,12.70
2022-12-06T05:11:40.883Z,12.80
2022-12-06T05:12:40.888Z,13.20
2022-12-06T05:13:40.862Z,12.90
2022-12-06T05:14:40.864Z,12.40
2022-12-06T05:15:40.863Z,11.80
2022-12-06T05:16:40.881Z,12.90
2022-12-06T05:17:40.856Z,11.50
2022-12-06T05:18:40.844Z,11.80
2022-12-06T05:19:40.833Z,12.70
2022-12-06T05:20:40.829Z,12.20
2022-12-06T05:21:40.833Z,11.20
2022-12-06T05:22:40.803Z,12.40
2022-12-06T05:23:40.805Z,11.40
2022-12-06T05:24:40.798Z,12.00
2022-12-06T05:25:40.790Z,12.20
2022-12-06T05:26:40.794Z,11.50
2022-12-06T05:27:40.791Z,12.20
2022-12-06T05:28:40.769Z,11.90
2022-12-06T05:29:40.769Z,10.90
2022-12-06T05:30:40.754Z,11.10
2022-12-06T05:31:40.812Z,11.90
2022-12-06T05:32:40.749Z,12.50
2022-12-06T05:33:40.800Z,11.10
2022-12-06T05:34:40.730Z,11.40
2022-12-06T05:35:40.729Z,10.50
2022-12-06T05:36:40.710Z,12.00
2022-12-06T05:37:40.712Z,10.90
2022-12-06T05:38:40.703Z,11.20
2022-12-06T05:39:40.722Z,12.30
2022-12-06T05:40:40.718Z,10.90
2022-12-06T05:41:40.691Z,11.30
2022-12-06T05:42:40.668Z,10.90
2022-12-06T05:43:40.683Z,11.50
2022-12-06T05:44:40.662Z,10.40
2022-12-06T05:45:40.722Z,12.00
2022-12-06T05:46:40.663Z,10.60
2022-12-06T05:47:40.653Z,10.30
2022-12-06T05:48:40.635Z,10.20
2022-12-06T05:49:40.636Z,12.00
2022-12-06T05:50:40.633Z,11.00
2022-12-06T05:51:40.613Z,13.50
2022-12-06T05:52:40.643Z,12.30
2022-12-06T05:53:40.603Z,10.50
2022-12-06T05:54:40.594Z,11.50
2022-12-06T05:55:40.606Z,11.00
2022-12-06T05:56:40.588Z,10.10
2022-12-06T05:57:45.611Z,10.10
2022-12-06T05:58:41.608Z,11.50
2022-12-06T05:59:40.564Z,10.40
2022-12-06T06:00:40.549Z,10.00
2022-12-06T06:01:40.602Z,9.50
2022-12-06T06:02:40.642Z,9.70
2022-12-06T06:03:46.954Z,9.60
2022-12-06T06:04:40.528Z,11.60
2022-12-06T06:05:40.520Z,11.00
2022-12-06T06:06:40.525Z,10.30
2022-12-06T06:07:40.585Z,10.50
2022-12-06T06:08:40.509Z,11.20
2022-12-06T06:09:40.499Z,11.50
2022-12-06T06:10:40.488Z,11.50
2022-12-06T06:11:40.480Z,11.20
2022-12-06T06:12:40.473Z,10.90
2022-12-06T06:13:40.488Z,11.60
2022-12-06T06:14:40.465Z,11.80
2022-12-06T06:15:40.474Z,11.30
2022-12-06T06:16:40.532Z,11.30
2022-12-06T06:17:40.451Z,10.40
2022-12-06T06:18:40.453Z,13.50
2022-12-06T06:19:40.439Z,12.10
2022-12-06T06:20:40.425Z,12.80
2022-12-06T06:21:40.443Z,15.20
2022-12-06T06:22:40.417Z,14.40
2022-12-06T06:23:40.405Z,13.20
2022-12-06T06:24:40.392Z,13.10
2022-12-06T06:25:40.391Z,13.50
2022-12-06T06:26:40.383Z,13.00
2022-12-06T06:27:40.403Z,14.60
2022-12-06T06:28:40.370Z,14.70
2022-12-06T06:29:45.153Z,16.60
2022-12-06T06:30:41.390Z,12.20
2022-12-06T06:31:40.413Z,12.10
2022-12-06T06:32:40.355Z,13.10
2022-12-06T06:33:40.360Z,12.80
2022-12-06T06:34:40.343Z,11.70
2022-12-06T06:35:40.347Z,11.00
2022-12-06T06:36:45.561Z,11.00
2022-12-06T06:37:40.323Z,10.30
2022-12-06T06:38:40.316Z,11.00
2022-12-06T06:39:40.310Z,10.50
2022-12-06T06:40:40.328Z,11.70
2022-12-06T06:41:40.296Z,12.80
2022-12-06T06:42:40.290Z,12.90
2022-12-06T06:43:40.282Z,12.00
2022-12-06T06:44:40.273Z,14.70
2022-12-06T06:45:40.296Z,13.10
2022-12-06T06:46:40.279Z,14.10
2022-12-06T06:47:40.257Z,18.20
2022-12-06T06:48:40.247Z,19.10
2022-12-06T06:49:40.246Z,15.60
2022-12-06T06:50:40.273Z,13.60
2022-12-06T06:51:40.232Z,18.30
2022-12-06T06:52:40.227Z,17.20
2022-12-06T06:53:40.222Z,17.70
2022-12-06T06:54:40.228Z,17.30
2022-12-06T06:55:40.209Z,13.70
2022-12-06T06:56:40.239Z,11.00
2022-12-06T06:57:40.199Z,12.60
2022-12-06T06:58:40.184Z,11.40
2022-12-06T06:59:40.181Z,11.00
2022-12-06T07:00:40.179Z,10.30
2022-12-06T07:01:40.248Z,11.70
2022-12-06T07:02:40.238Z,11.00
2022-12-06T07:03:40.157Z,12.80
2022-12-06T07:04:40.163Z,9.90
2022-12-06T07:05:40.151Z,10.90
2022-12-06T07:06:40.141Z,10.30
2022-12-06T07:07:40.188Z,12.10
2022-12-06T07:08:40.128Z,11.10
2022-12-06T07:09:40.125Z,11.80
2022-12-06T07:10:40.124Z,10.40
2022-12-06T07:11:40.115Z,10.80
2022-12-06T07:12:40.124Z,9.90
2022-12-06T07:13:40.105Z,10.70
2022-12-06T07:14:40.102Z,10.50
2022-12-06T07:15:40.086Z,10.60
2022-12-06T07:16:40.105Z,10.10
2022-12-06T07:17:40.078Z,10.30
2022-12-06T07:18:40.083Z,10.30
2022-12-06T07:19:40.058Z,8.90
2022-12-06T07:20:40.076Z,11.00
2022-12-06T07:21:40.056Z,9.70
2022-12-06T07:22:40.041Z,11.60
2022-12-06T07:23:40.041Z,10.60
2022-12-06T07:24:43.652Z,14.30
2022-12-06T07:25:41.063Z,18.70
2022-12-06T07:26:40.021Z,16.10
2022-12-06T07:27:40.013Z,14.20
2022-12-06T07:28:40.006Z,12.70
2022-12-06T07:29:40.010Z,12.80
2022-12-06T07:30:40.081Z,13.00
2022-12-06T07:31:40.052Z,15.10
2022-12-06T07:32:39.981Z,19.10
2022-12-06T07:33:39.984Z,24.40
2022-12-06T07:34:39.975Z,18.60
2022-12-06T07:36:10.956Z,16.80
2022-12-06T07:36:40.985Z,15.80
2022-12-06T07:37:39.958Z,14.60
2022-12-06T07:38:39.961Z,15.20
2022-12-06T07:39:39.949Z,15.50
2022-12-06T07:41:39.955Z,17.20
2022-12-06T07:42:39.926Z,21.50
2022-12-06T07:43:39.922Z,16.70
2022-12-06T07:44:39.936Z,12.40
2022-12-06T07:45:39.971Z,11.50
2022-12-06T07:46:39.914Z,22.90
2022-12-06T07:47:39.929Z,18.90
2022-12-06T07:48:39.893Z,15.90
2022-12-06T07:49:39.885Z,15.50
2022-12-06T07:50:39.891Z,14.20
2022-12-06T07:51:39.880Z,12.40
2022-12-06T07:52:39.876Z,11.20
2022-12-06T07:53:39.861Z,10.50
2022-12-06T07:54:39.867Z,10.70
2022-12-06T07:55:39.857Z,11.40
2022-12-06T07:56:39.843Z,11.20
2022-12-06T07:57:43.457Z,10.00
2022-12-06T07:58:39.829Z,9.40
2022-12-06T07:59:39.843Z,10.80
2022-12-06T08:00:39.838Z,9.00
2022-12-06T08:01:39.941Z,10.20
2022-12-06T08:02:39.823Z,11.50
2022-12-06T08:03:39.802Z,13.30
2022-12-06T08:04:39.871Z,16.80
2022-12-06T08:05:39.803Z,14.00
2022-12-06T08:06:39.786Z,12.70
2022-12-06T08:07:39.854Z,17.90
2022-12-06T08:08:39.771Z,18.90
2022-12-06T08:09:39.782Z,27.00
2022-12-06T08:10:39.755Z,36.00
2022-12-06T08:11:39.768Z,29.90
2022-12-06T08:12:39.754Z,20.00
2022-12-06T08:13:39.764Z,25.10
2022-12-06T08:14:39.737Z,35.50
2022-12-06T08:15:39.796Z,41.20
2022-12-06T08:16:39.717Z,20.40
2022-12-06T08:17:39.714Z,12.60
2022-12-06T08:18:39.714Z,19.90
2022-12-06T08:19:39.756Z,17.90
2022-12-06T08:20:39.695Z,18.50
2022-12-06T08:21:39.691Z,11.30
2022-12-06T08:22:39.690Z,9.70
2022-12-06T08:23:39.672Z,11.00
2022-12-06T08:24:39.659Z,14.30
2022-12-06T08:25:39.677Z,10.70
2022-12-06T08:26:39.652Z,10.90
2022-12-06T08:27:39.642Z,12.00
2022-12-06T08:28:39.635Z,11.90
2022-12-06T08:29:39.646Z,10.00
2022-12-06T08:30:39.693Z,12.40
2022-12-06T08:31:39.687Z,12.40
2022-12-06T08:32:39.613Z,11.60
2022-12-06T08:33:39.614Z,11.90
2022-12-06T08:34:39.602Z,11.50
2022-12-06T08:35:39.593Z,11.60
2022-12-06T08:36:39.603Z,10.70
2022-12-06T08:37:39.610Z,12.60
2022-12-06T08:38:39.572Z,12.90
2022-12-06T08:39:39.567Z,13.10
2022-12-06T08:40:39.563Z,11.90
2022-12-06T08:41:39.572Z,11.20
2022-12-06T08:42:39.560Z,12.20
2022-12-06T08:43:39.547Z,11.80
2022-12-06T08:44:39.538Z,10.60
2022-12-06T08:45:39.531Z,12.30
2022-12-06T08:46:39.585Z,11.20
2022-12-06T08:47:39.532Z,12.30
2022-12-06T08:48:42.977Z,13.00
2022-12-06T08:49:39.523Z,11.10
2022-12-06T08:50:39.496Z,10.70
2022-12-06T08:51:39.496Z,10.90
2022-12-06T08:52:39.484Z,10.80
2022-12-06T08:53:39.515Z,12.40
2022-12-06T08:54:39.488Z,12.00
2022-12-06T08:55:39.468Z,12.20
2022-12-06T08:56:39.457Z,12.00
2022-12-06T08:57:39.473Z,11.80
2022-12-06T08:58:39.444Z,12.40
2022-12-06T08:59:39.470Z,12.10
2022-12-06T09:00:39.436Z,11.50
2022-12-06T09:01:39.480Z,11.20
2022-12-06T09:02:39.448Z,11.30
2022-12-06T09:03:39.422Z,10.40
2022-12-06T09:04:39.497Z,10.60
2022-12-06T09:05:39.430Z,11.00
2022-12-06T09:06:39.420Z,10.60
2022-12-06T09:07:39.410Z,10.30
2022-12-06T09:08:39.390Z,10.80
2022-12-06T09:09:39.391Z,11.00
2022-12-06T09:10:39.373Z,10.40
2022-12-06T09:11:39.371Z,11.20
2022-12-06T09:12:39.382Z,10.20
2022-12-06T09:13:39.361Z,11.10
2022-12-06T09:14:39.358Z,11.40
2022-12-06T09:15:39.419Z,12.50
2022-12-06T09:16:39.343Z,11.00
2022-12-06T09:17:39.348Z,12.10
2022-12-06T09:18:39.328Z,11.80
2022-12-06T09:19:39.336Z,12.40
2022-12-06T09:20:39.322Z,13.60
2022-12-06T09:21:39.330Z,12.90
2022-12-06T09:22:39.308Z,12.70
2022-12-06T09:23:39.320Z,12.00
2022-12-06T09:24:39.305Z,13.50
2022-12-06T09:25:39.319Z,13.40
2022-12-06T09:26:39.302Z,14.00
2022-12-06T09:27:39.277Z,13.50
2022-12-06T09:28:39.300Z,13.30
2022-12-06T09:29:40.962Z,12.60
2022-12-06T09:30:39.281Z,12.70
2022-12-06T09:31:39.308Z,12.60
2022-12-06T09:32:39.247Z,12.70
2022-12-06T09:33:39.294Z,12.60
2022-12-06T09:34:39.252Z,12.20
2022-12-06T09:35:39.235Z,12.20
2022-12-06T09:36:39.227Z,11.70
2022-12-06T09:37:39.219Z,13.00
2022-12-06T09:38:39.220Z,13.30
2022-12-06T09:39:39.215Z,13.10
2022-12-06T09:40:42.843Z,13.60
2022-12-06T09:41:39.190Z,13.30
2022-12-06T09:42:39.218Z,11.80
2022-12-06T09:43:39.181Z,12.40
2022-12-06T09:44:39.165Z,11.60
2022-12-06T09:45:39.215Z,11.90
2022-12-06T09:46:39.218Z,11.50
2022-12-06T09:47:39.159Z,11.60
2022-12-06T09:48:41.795Z,12.40
2022-12-06T09:49:40.149Z,14.40
2022-12-06T09:50:39.133Z,11.90
2022-12-06T09:51:39.137Z,12.00
2022-12-06T09:52:39.118Z,12.90
2022-12-06T09:53:39.122Z,12.00
2022-12-06T09:54:39.108Z,12.90
2022-12-06T09:55:39.119Z,12.70
2022-12-06T09:56:39.110Z,12.80
2022-12-06T09:57:39.086Z,12.40
2022-12-06T09:58:39.079Z,12.20
2022-12-06T09:59:39.073Z,12.30
2022-12-06T10:00:39.098Z,13.60
2022-12-06T10:01:39.122Z,12.50
2022-12-06T10:02:39.152Z,11.80
2022-12-06T10:03:39.052Z,11.70
2022-12-06T10:04:39.051Z,13.20
2022-12-06T10:05:39.064Z,12.40
2022-12-06T10:06:39.029Z,14.30
2022-12-06T10:07:39.160Z,13.20
2022-12-06T10:08:39.151Z,11.70
2022-12-06T10:09:39.012Z,11.80
2022-12-06T10:10:39.014Z,11.90
2022-12-06T10:11:39.028Z,12.50
2022-12-06T10:12:39.001Z,12.40
2022-12-06T10:13:38.999Z,13.50
2022-12-06T10:14:38.985Z,12.50
2022-12-06T10:15:39.081Z,12.80
2022-12-06T10:16:39.006Z,13.20
2022-12-06T10:17:38.971Z,12.00
2022-12-06T10:18:38.950Z,11.70
2022-12-06T10:19:38.946Z,14.00
2022-12-06T10:20:38.943Z,12.10
2022-12-06T10:21:38.958Z,12.30
2022-12-06T10:22:38.932Z,12.20
2022-12-06T10:23:38.933Z,12.40
2022-12-06T10:24:38.927Z,12.60
2022-12-06T10:25:38.926Z,13.20
2022-12-06T10:26:38.914Z,13.20
2022-12-06T10:27:38.923Z,13.10
2022-12-06T10:28:38.891Z,12.80
2022-12-06T10:29:38.885Z,13.30
2022-12-06T10:30:38.895Z,12.50
2022-12-06T10:31:38.893Z,12.30
2022-12-06T10:32:38.856Z,13.20
2022-12-06T10:33:38.879Z,11.60
2022-12-06T10:34:40.303Z,13.20
2022-12-06T10:35:38.849Z,14.50
2022-12-06T10:36:38.850Z,13.20
2022-12-06T10:37:38.831Z,14.10
2022-12-06T10:38:38.825Z,13.20
2022-12-06T10:39:38.846Z,13.20
2022-12-06T10:40:38.858Z,13.60
2022-12-06T10:41:38.817Z,15.30
2022-12-06T10:42:38.809Z,16.50
2022-12-06T10:43:38.798Z,14.70
2022-12-06T10:44:38.783Z,15.40
2022-12-06T10:45:38.790Z,15.30
2022-12-06T10:46:38.860Z,15.50
2022-12-06T10:47:38.772Z,16.20
2022-12-06T10:48:38.760Z,19.50
2022-12-06T10:49:38.786Z,17.00
2022-12-06T10:50:38.760Z,16.90
2022-12-06T10:51:38.760Z,14.70
2022-12-06T10:52:38.737Z,15.60
2022-12-06T10:53:38.741Z,20.10
2022-12-06T10:54:38.749Z,17.40
2022-12-06T10:55:38.729Z,16.90
2022-12-06T10:56:38.714Z,14.50
2022-12-06T10:57:38.719Z,13.80
2022-12-06T10:58:38.708Z,13.60
2022-12-06T10:59:38.697Z,12.60
2022-12-06T11:00:38.738Z,14.10
2022-12-06T11:01:38.789Z,12.50
2022-12-06T11:02:38.742Z,12.00
2022-12-06T11:03:38.670Z,13.40
2022-12-06T11:04:38.662Z,14.90
2022-12-06T11:05:38.670Z,14.60
2022-12-06T11:06:38.662Z,14.60
2022-12-06T11:07:38.685Z,12.90
2022-12-06T11:08:38.674Z,12.70
2022-12-06T11:09:38.661Z,13.50
2022-12-06T11:10:38.627Z,14.90
2022-12-06T11:11:38.624Z,13.30
2022-12-06T11:12:38.615Z,12.40
2022-12-06T11:13:38.622Z,14.70
2022-12-06T11:14:38.682Z,13.60
2022-12-06T11:15:38.605Z,13.10
2022-12-06T11:16:38.625Z,13.60
2022-12-06T11:17:38.598Z,12.50
2022-12-06T11:18:38.595Z,13.00
2022-12-06T11:19:38.583Z,13.30
2022-12-06T11:20:38.586Z,15.20
2022-12-06T11:21:38.601Z,15.20
2022-12-06T11:22:38.551Z,14.60
2022-12-06T11:23:38.559Z,14.60
2022-12-06T11:24:41.926Z,14.70
2022-12-06T11:25:39.543Z,14.60
2022-12-06T11:26:38.535Z,14.80
2022-12-06T11:27:38.561Z,15.00
2022-12-06T11:28:38.553Z,14.70
2022-12-06T11:29:38.515Z,17.10
2022-12-06T11:30:38.498Z,16.80
2022-12-06T11:31:38.561Z,16.10
2022-12-06T11:32:38.483Z,14.80
2022-12-06T11:33:38.501Z,12.30
2022-12-06T11:34:38.502Z,13.30
2022-12-06T11:35:38.496Z,13.60
2022-12-06T11:36:38.461Z,15.20
2022-12-06T11:37:42.934Z,14.40
2022-12-06T11:38:39.569Z,13.60
2022-12-06T11:39:38.470Z,15.30
2022-12-06T11:40:38.438Z,15.80
2022-12-06T11:41:38.437Z,16.40
2022-12-06T11:42:38.435Z,15.30
2022-12-06T11:43:38.423Z,14.20
2022-12-06T11:44:38.430Z,11.00
2022-12-06T11:45:38.403Z,12.30
2022-12-06T11:46:38.457Z,13.40
2022-12-06T11:47:38.439Z,13.50
2022-12-06T11:48:38.387Z,11.20
2022-12-06T11:49:38.405Z,12.50
2022-12-06T11:50:38.380Z,12.20
2022-12-06T11:51:38.395Z,12.70
2022-12-06T11:52:38.382Z,12.70
2022-12-06T11:53:38.365Z,12.50
2022-12-06T11:54:38.350Z,13.50
2022-12-06T11:55:38.371Z,14.10
2022-12-06T11:56:38.358Z,15.90
2022-12-06T11:57:38.334Z,13.30
2022-12-06T11:58:38.325Z,12.70
2022-12-06T11:59:38.313Z,14.80
2022-12-06T12:00:38.357Z,13.00
2022-12-06T12:01:38.369Z,12.50
2022-12-06T12:02:38.365Z,11.90
2022-12-06T12:03:38.338Z,10.60
2022-12-06T12:04:38.281Z,12.90
2022-12-06T12:05:38.299Z,13.30
2022-12-06T12:06:38.276Z,12.90
2022-12-06T12:07:38.315Z,12.90
2022-12-06T12:08:38.268Z,12.60
2022-12-06T12:09:38.273Z,13.60
2022-12-06T12:10:38.266Z,14.00
2022-12-06T12:11:38.257Z,12.80
2022-12-06T12:12:38.250Z,15.90
2022-12-06T12:13:38.228Z,17.70
2022-12-06T12:14:38.226Z,15.20
2022-12-06T12:15:38.217Z,12.90
2022-12-06T12:16:38.258Z,15.00
2022-12-06T12:17:38.207Z,15.40
2022-12-06T12:18:38.208Z,14.90
2022-12-06T12:19:38.186Z,21.30
2022-12-06T12:20:38.213Z,15.80
2022-12-06T12:21:38.186Z,14.50
2022-12-06T12:22:38.185Z,13.00
2022-12-06T12:23:38.175Z,12.40
2022-12-06T12:24:56.406Z,12.00
2022-12-06T12:25:39.304Z,16.80
2022-12-06T12:26:38.142Z,14.60
2022-12-06T12:27:38.139Z,13.70
2022-12-06T12:28:38.128Z,14.80
2022-12-06T12:29:38.143Z,12.70
2022-12-06T12:30:38.153Z,14.90
2022-12-06T12:31:38.211Z,15.90
2022-12-06T12:32:38.104Z,23.00
2022-12-06T12:33:38.113Z,21.30
2022-12-06T12:34:42.749Z,28.50
2022-12-06T12:35:38.085Z,14.50
2022-12-06T12:36:38.116Z,12.30
2022-12-06T12:37:38.072Z,12.90
2022-12-06T12:38:38.072Z,11.70
2022-12-06T12:39:38.069Z,26.30
2022-12-06T12:40:38.060Z,31.30
2022-12-06T12:41:38.050Z,27.90
2022-12-06T12:42:38.057Z,20.30
2022-12-06T12:43:38.039Z,19.60
2022-12-06T12:44:39.353Z,22.10
2022-12-06T12:45:38.058Z,19.90
2022-12-06T12:46:38.096Z,18.90
2022-12-06T12:47:38.038Z,15.00
2022-12-06T12:48:38.029Z,17.50
2022-12-06T12:49:38.017Z,15.60
2022-12-06T12:50:37.992Z,19.90
2022-12-06T12:51:38.006Z,43.00
2022-12-06T12:52:37.999Z,36.00
2022-12-06T12:53:37.995Z,35.80
2022-12-06T12:54:37.992Z,31.50
2022-12-06T12:55:37.983Z,29.90
2022-12-06T12:56:37.970Z,28.50